Chandler, Canada
Current Conditions -  °F | °C
As of 9:00 PM on Friday 24 Oct 2014 (Local Time) from CYGP Reporting Station
Light Rain Light Rain  
Wind Chill: 41°   Ceiling: 2500
Heat Index: 41°   Visibility: 6mi
Dew Point: 37°   Wind: 2mph
Humidity: 87%   Direction: 300°WNW
Pressure: 29.71"   Gusts: NA
Location:  48.33°N, 64.67°W
Report Text: CYGP 250100Z 30002KT 6SM -RA BR OVC025 05/03 A2971 RMK SC8 SLP061
Loading
Personal Weather Stations






























Interactive Weather Map
Tropical Storm Tracking
New forecast layout! Learn more

10-Day Weather Forecast

Advertisements
Track Severe Weather on mobile